createdAt,value
2024-02-10T00:01:10.382Z,8.32
2024-02-10T00:03:38.906Z,10.13
2024-02-10T00:06:08.548Z,10.50
2024-02-10T00:08:41.355Z,10.60
2024-02-10T00:11:09.817Z,17.52
2024-02-10T00:13:40.886Z,15.07
2024-02-10T00:16:11.140Z,15.63
2024-02-10T00:18:42.210Z,15.65
2024-02-10T00:21:11.381Z,15.95
2024-02-10T00:23:42.608Z,14.77
2024-02-10T00:26:11.127Z,15.38
2024-02-10T00:28:40.280Z,13.77
2024-02-10T00:31:09.152Z,16.30
2024-02-10T00:33:37.820Z,13.98
2024-02-10T00:36:06.693Z,14.70
2024-02-10T00:38:35.804Z,17.70
2024-02-10T00:41:07.121Z,11.63
2024-02-10T00:43:38.410Z,15.20
2024-02-10T00:46:09.294Z,13.43
2024-02-10T00:48:38.226Z,11.63
2024-02-10T00:51:07.623Z,12.68
2024-02-10T00:53:40.183Z,14.07
2024-02-10T00:56:10.434Z,17.15
2024-02-10T00:58:43.026Z,12.25
2024-02-10T01:01:14.467Z,10.27
2024-02-10T01:03:46.395Z,12.10
2024-02-10T01:06:17.001Z,14.60
2024-02-10T01:08:50.563Z,12.80
2024-02-10T01:11:21.038Z,13.63
2024-02-10T01:13:51.991Z,13.38
2024-02-10T01:16:21.934Z,12.98
2024-02-10T01:18:51.304Z,10.07
2024-02-10T01:21:19.978Z,13.95
2024-02-10T01:23:50.771Z,11.05
2024-02-10T01:26:20.670Z,14.23
2024-02-10T01:28:49.210Z,13.65
2024-02-10T01:31:18.458Z,12.80
2024-02-10T01:33:48.907Z,10.85
2024-02-10T01:36:17.773Z,10.65
2024-02-10T01:38:47.961Z,9.65
2024-02-10T01:41:17.038Z,9.82
2024-02-10T01:43:47.651Z,8.95
2024-02-10T01:46:17.377Z,13.55
2024-02-10T01:48:46.462Z,10.32
2024-02-10T01:51:16.017Z,11.55
2024-02-10T01:53:45.364Z,7.85
2024-02-10T01:56:17.420Z,11.88
2024-02-10T01:58:49.520Z,8.63
2024-02-10T02:01:18.685Z,10.20
2024-02-10T02:03:48.455Z,10.85
2024-02-10T02:06:19.711Z,11.30
2024-02-10T02:08:49.786Z,8.65
2024-02-10T02:11:18.721Z,10.50
2024-02-10T02:13:51.611Z,7.50
2024-02-10T02:16:21.482Z,9.50
2024-02-10T02:18:49.968Z,9.82
2024-02-10T02:21:18.902Z,8.10
2024-02-10T02:23:48.987Z,8.38
2024-02-10T02:26:17.710Z,8.70
2024-02-10T02:28:46.234Z,11.95
2024-02-10T02:31:16.564Z,11.45
2024-02-10T02:33:45.011Z,8.90
2024-02-10T02:36:15.082Z,9.70
2024-02-10T02:38:45.327Z,9.40
2024-02-10T02:41:16.034Z,8.43
2024-02-10T02:43:46.974Z,10.00
2024-02-10T02:46:15.423Z,7.97
2024-02-10T02:48:44.078Z,10.18
2024-02-10T02:51:16.213Z,11.02
2024-02-10T02:53:44.835Z,11.60
2024-02-10T02:56:17.298Z,9.35
2024-02-10T02:58:45.690Z,9.48
2024-02-10T03:01:14.193Z,11.70
2024-02-10T03:03:42.700Z,11.57
2024-02-10T03:06:11.184Z,16.27
2024-02-10T03:08:43.387Z,14.40
2024-02-10T03:11:13.654Z,14.10
2024-02-10T03:13:45.033Z,17.70
2024-02-10T03:16:14.034Z,13.55
2024-02-10T03:18:46.570Z,12.98
2024-02-10T03:21:15.464Z,14.70
2024-02-10T03:23:45.775Z,19.50
2024-02-10T03:26:14.709Z,15.48
2024-02-10T03:28:44.529Z,29.58
2024-02-10T03:31:13.317Z,30.65
2024-02-10T03:33:42.033Z,26.38
2024-02-10T03:36:10.549Z,27.40
2024-02-10T03:38:38.968Z,19.08
2024-02-10T03:41:12.285Z,17.27
2024-02-10T03:43:40.809Z,12.82
2024-02-10T03:46:10.953Z,13.43
2024-02-10T03:48:41.110Z,11.80
2024-02-10T03:51:10.330Z,12.23
2024-02-10T03:53:40.202Z,13.90
2024-02-10T03:56:11.314Z,10.95
2024-02-10T03:58:43.171Z,10.85
2024-02-10T04:01:16.715Z,10.80
2024-02-10T04:03:46.584Z,13.75
2024-02-10T04:06:16.827Z,12.43
2024-02-10T04:08:47.431Z,15.55
2024-02-10T04:11:17.851Z,14.88
2024-02-10T04:13:47.140Z,13.38
2024-02-10T04:16:17.638Z,11.02
2024-02-10T04:18:46.116Z,11.77
2024-02-10T04:21:16.298Z,13.48
2024-02-10T04:23:45.140Z,9.52
2024-02-10T04:26:13.943Z,9.90
2024-02-10T04:28:42.494Z,9.85
2024-02-10T04:31:12.962Z,9.23
2024-02-10T04:33:51.689Z,9.57
2024-02-10T04:36:22.334Z,9.55
2024-02-10T04:38:50.750Z,9.07
2024-02-10T04:41:19.974Z,8.68
2024-02-10T04:43:48.486Z,12.55
2024-02-10T04:46:18.210Z,9.60
2024-02-10T04:48:49.342Z,9.48
2024-02-10T04:51:17.915Z,7.13
2024-02-10T04:53:46.340Z,9.77
2024-02-10T04:56:18.852Z,9.20
2024-02-10T04:58:47.730Z,9.18
2024-02-10T05:01:21.444Z,7.55
2024-02-10T05:03:51.762Z,7.60
2024-02-10T05:06:20.240Z,8.43
2024-02-10T05:08:48.798Z,8.88
2024-02-10T05:11:17.167Z,7.72
2024-02-10T05:13:45.944Z,11.32
2024-02-10T05:16:17.179Z,11.10
2024-02-10T05:18:45.835Z,6.82
2024-02-10T05:21:21.677Z,7.47
2024-02-10T05:23:51.193Z,8.02
2024-02-10T05:26:19.742Z,11.30
2024-02-10T05:28:49.199Z,7.03
2024-02-10T05:31:18.327Z,12.15
2024-02-10T05:33:48.052Z,9.48
2024-02-10T05:36:16.534Z,11.07
2024-02-10T05:38:49.170Z,9.20
2024-02-10T05:41:18.976Z,10.57
2024-02-10T05:43:48.567Z,12.65
2024-02-10T05:46:17.176Z,16.85
2024-02-10T05:48:45.894Z,10.18
2024-02-10T05:51:14.907Z,10.63
2024-02-10T05:53:46.549Z,10.77
2024-02-10T05:56:17.055Z,11.30
2024-02-10T05:58:45.725Z,14.40
2024-02-10T06:01:15.547Z,12.50
2024-02-10T06:03:44.693Z,11.07
2024-02-10T06:06:15.498Z,12.25
2024-02-10T06:08:44.385Z,9.80
2024-02-10T06:11:12.895Z,9.25
2024-02-10T06:13:43.973Z,8.15
2024-02-10T06:16:12.412Z,8.93
2024-02-10T06:18:41.377Z,8.35
2024-02-10T06:21:10.109Z,10.23
2024-02-10T06:23:39.070Z,9.40
2024-02-10T06:26:11.781Z,8.38
2024-02-10T06:28:41.380Z,7.38
2024-02-10T06:31:15.908Z,7.40
2024-02-10T06:33:47.127Z,5.80
2024-02-10T06:36:17.087Z,5.68
2024-02-10T06:38:46.782Z,6.05
2024-02-10T06:41:15.363Z,5.65
2024-02-10T06:43:43.941Z,5.13
2024-02-10T06:46:15.741Z,5.28
2024-02-10T06:48:44.604Z,7.18
2024-02-10T06:51:13.284Z,6.00
2024-02-10T06:53:41.775Z,5.15
2024-02-10T06:56:10.836Z,6.15
2024-02-10T06:58:40.742Z,6.78
2024-02-10T07:01:12.133Z,5.03
2024-02-10T07:03:47.128Z,6.13
2024-02-10T07:06:19.172Z,6.70
2024-02-10T07:08:48.167Z,5.80
2024-02-10T07:11:16.690Z,6.10
2024-02-10T07:13:45.103Z,7.40
2024-02-10T07:16:14.066Z,5.90
2024-02-10T07:18:48.752Z,5.43
2024-02-10T07:21:17.964Z,6.85
2024-02-10T07:23:46.961Z,6.28
2024-02-10T07:26:15.495Z,8.68
2024-02-10T07:28:44.301Z,7.13
2024-02-10T07:31:13.784Z,9.63
2024-02-10T07:33:47.038Z,7.35
2024-02-10T07:36:16.896Z,6.22
2024-02-10T07:38:45.313Z,9.93
2024-02-10T07:41:13.934Z,8.88
2024-02-10T07:43:42.451Z,10.60
2024-02-10T07:46:10.841Z,8.45
2024-02-10T07:48:39.344Z,8.90
2024-02-10T07:51:09.597Z,13.40
2024-02-10T07:53:38.111Z,10.90
2024-02-10T07:56:06.791Z,13.13
2024-02-10T07:58:36.194Z,10.57
2024-02-10T08:01:04.756Z,15.98
2024-02-10T08:03:33.666Z,12.85
2024-02-10T08:06:02.282Z,13.65
2024-02-10T08:08:32.515Z,12.13
2024-02-10T08:11:00.995Z,13.20
2024-02-10T08:13:30.900Z,12.90
2024-02-10T08:16:02.258Z,13.52
2024-02-10T08:18:32.912Z,12.73
2024-02-10T08:21:01.409Z,15.25
2024-02-10T08:23:29.837Z,13.48
2024-02-10T08:26:00.203Z,10.23
2024-02-10T08:28:30.802Z,11.60
2024-02-10T08:31:00.859Z,10.02
2024-02-10T08:33:35.092Z,10.93
2024-02-10T08:36:03.911Z,15.65
2024-02-10T08:38:33.037Z,13.07
2024-02-10T08:41:02.788Z,14.30
2024-02-10T08:43:31.300Z,15.27
2024-02-10T08:46:02.029Z,17.63
2024-02-10T08:48:30.647Z,16.38
2024-02-10T08:50:59.412Z,18.00
2024-02-10T08:53:28.283Z,17.52
2024-02-10T08:55:56.731Z,16.60
2024-02-10T08:58:27.225Z,18.50
2024-02-10T09:00:55.924Z,17.83
2024-02-10T09:03:25.507Z,16.10
2024-02-10T09:05:54.548Z,17.02
2024-02-10T09:08:23.780Z,20.52
2024-02-10T09:10:52.255Z,19.25
2024-02-10T09:13:21.656Z,19.95
2024-02-10T09:18:26.578Z,17.30
2024-02-10T09:20:55.101Z,16.20
2024-02-10T09:23:23.466Z,14.77
2024-02-10T09:25:52.227Z,14.27
2024-02-10T09:28:20.688Z,12.20
2024-02-10T09:30:49.500Z,13.38
2024-02-10T09:33:22.600Z,12.23
2024-02-10T09:35:54.034Z,12.88
2024-02-10T09:38:23.814Z,10.13
2024-02-10T09:40:58.875Z,8.45
2024-02-10T09:43:33.513Z,11.10
2024-02-10T09:46:04.369Z,8.38
2024-02-10T09:48:34.004Z,7.72
2024-02-10T09:51:03.784Z,10.10
2024-02-10T09:53:32.391Z,10.18
2024-02-10T09:56:03.292Z,10.80
2024-02-10T09:58:32.950Z,10.15
2024-02-10T10:01:02.525Z,8.15
2024-02-10T10:03:32.223Z,7.15
2024-02-10T10:06:04.157Z,6.72
2024-02-10T10:08:36.005Z,8.10
2024-02-10T10:11:04.686Z,7.32
2024-02-10T10:13:35.198Z,4.85
2024-02-10T10:16:06.922Z,7.25
2024-02-10T10:18:36.537Z,7.82
2024-02-10T10:21:07.337Z,6.45
2024-02-10T10:23:37.221Z,4.88
2024-02-10T10:26:07.209Z,7.40
2024-02-10T10:28:35.720Z,5.60
2024-02-10T10:31:04.633Z,7.40
2024-02-10T10:33:35.046Z,8.55
2024-02-10T10:36:04.232Z,5.93
2024-02-10T10:38:33.030Z,5.55
2024-02-10T10:41:03.662Z,4.60
2024-02-10T10:43:33.003Z,4.93
2024-02-10T10:46:01.536Z,4.25
2024-02-10T10:48:30.074Z,4.05
2024-02-10T10:50:59.782Z,4.07
2024-02-10T10:53:29.753Z,3.60
2024-02-10T10:56:01.059Z,2.38
2024-02-10T10:58:34.798Z,2.78
2024-02-10T11:01:04.484Z,3.13
2024-02-10T11:03:33.570Z,2.60
2024-02-10T11:06:12.447Z,2.38
2024-02-10T11:08:42.294Z,1.65
2024-02-10T11:11:11.515Z,2.03
2024-02-10T11:13:41.542Z,2.15
2024-02-10T11:16:14.111Z,3.80
2024-02-10T11:18:45.271Z,4.28
2024-02-10T11:21:20.484Z,1.42
2024-02-10T11:24:02.479Z,0.90
2024-02-10T11:26:32.740Z,2.15
2024-02-10T11:29:03.693Z,3.90
2024-02-10T11:31:35.024Z,3.22
2024-02-10T11:34:07.043Z,2.33
2024-02-10T11:36:37.290Z,2.75
2024-02-10T11:39:08.775Z,1.33
2024-02-10T11:41:37.628Z,1.20
2024-02-10T11:44:09.342Z,2.22
2024-02-10T11:46:38.292Z,1.67
2024-02-10T11:49:06.760Z,4.07
2024-02-10T11:51:37.235Z,2.75
2024-02-10T11:54:06.088Z,1.05
2024-02-10T11:56:35.330Z,1.10
2024-02-10T11:59:04.694Z,0.85
2024-02-10T12:01:35.619Z,1.15
2024-02-10T12:04:05.742Z,0.70
2024-02-10T12:06:37.936Z,0.75
2024-02-10T12:09:11.235Z,2.25
2024-02-10T12:11:39.980Z,0.90
2024-02-10T12:14:15.420Z,1.63
2024-02-10T12:16:46.667Z,1.60
2024-02-10T12:19:16.891Z,1.42
2024-02-10T12:21:46.486Z,1.40
2024-02-10T12:24:15.685Z,1.98
2024-02-10T12:26:44.133Z,1.13
2024-02-10T12:29:14.400Z,0.80
2024-02-10T12:31:45.469Z,1.15
2024-02-10T12:34:16.657Z,1.52
2024-02-10T12:36:45.232Z,0.70
2024-02-10T12:39:13.841Z,0.82
2024-02-10T12:41:44.003Z,0.95
2024-02-10T12:44:13.152Z,0.80
2024-02-10T12:46:42.098Z,1.95
2024-02-10T12:49:11.925Z,1.15
2024-02-10T12:51:42.001Z,1.60
2024-02-10T12:54:12.484Z,1.35
2024-02-10T12:56:41.342Z,3.45
2024-02-10T12:59:11.796Z,1.77
2024-02-10T13:01:40.727Z,2.20
2024-02-10T13:04:09.433Z,0.82
2024-02-10T13:06:41.962Z,0.70
2024-02-10T13:09:10.981Z,1.08
2024-02-10T13:11:39.736Z,0.90
2024-02-10T13:14:11.303Z,1.38
2024-02-10T13:16:42.181Z,0.90
2024-02-10T13:19:15.087Z,1.85
2024-02-10T13:21:45.701Z,0.80
2024-02-10T13:24:15.753Z,0.47
2024-02-10T13:26:44.180Z,0.60
2024-02-10T13:29:13.003Z,1.23
2024-02-10T13:31:41.524Z,0.50
2024-02-10T13:34:19.991Z,1.10
2024-02-10T13:36:54.175Z,0.70
2024-02-10T13:39:40.241Z,1.20
2024-02-10T13:42:27.488Z,1.20
2024-02-10T13:45:13.548Z,1.40
2024-02-10T13:47:59.884Z,1.05
2024-02-10T13:50:45.741Z,1.30
2024-02-10T13:53:33.155Z,1.35
2024-02-10T13:56:19.193Z,2.60
2024-02-10T13:58:46.505Z,1.30
2024-02-10T14:01:18.481Z,1.05
2024-02-10T14:04:06.754Z,1.98
2024-02-10T14:06:35.864Z,1.05
2024-02-10T14:09:05.757Z,1.15
2024-02-10T14:11:37.373Z,1.20
2024-02-10T14:14:06.431Z,1.75
2024-02-10T14:16:39.313Z,1.33
2024-02-10T14:19:15.103Z,1.48
2024-02-10T14:21:46.289Z,3.15
2024-02-10T14:24:19.656Z,1.27
2024-02-10T14:27:02.074Z,2.75
2024-02-10T14:29:35.156Z,2.92
2024-02-10T14:32:11.807Z,2.65
2024-02-10T14:35:02.059Z,2.30
2024-02-10T14:37:43.131Z,3.42
2024-02-10T14:40:17.247Z,1.95
2024-02-10T14:42:45.760Z,3.10
2024-02-10T14:45:20.134Z,2.20
2024-02-10T14:47:48.779Z,3.45
2024-02-10T14:50:19.043Z,3.05
2024-02-10T14:52:48.700Z,3.47
2024-02-10T14:55:19.507Z,3.78
2024-02-10T14:57:48.009Z,3.67
2024-02-10T15:00:18.267Z,3.63
2024-02-10T15:02:46.768Z,2.33
2024-02-10T15:05:15.985Z,3.17
2024-02-10T15:07:44.588Z,2.17
2024-02-10T15:10:13.517Z,3.35
2024-02-10T15:12:43.376Z,4.22
2024-02-10T15:15:12.284Z,3.63
2024-02-10T15:17:41.236Z,3.90
2024-02-10T15:20:11.004Z,3.08
2024-02-10T15:22:41.316Z,3.05
2024-02-10T15:25:15.378Z,3.33
2024-02-10T15:27:46.038Z,5.57
2024-02-10T15:30:15.688Z,4.93
2024-02-10T15:32:45.662Z,4.13
2024-02-10T15:35:15.382Z,5.10
2024-02-10T15:37:44.090Z,4.45
2024-02-10T15:40:21.900Z,3.60
2024-02-10T15:42:52.508Z,4.55
2024-02-10T15:45:26.271Z,4.00
2024-02-10T15:47:56.335Z,3.83
2024-02-10T15:50:25.112Z,3.55
2024-02-10T15:52:54.238Z,3.42
2024-02-10T15:55:22.779Z,5.18
2024-02-10T15:57:53.640Z,5.15
2024-02-10T16:00:24.674Z,4.95
2024-02-10T16:02:53.633Z,3.55
2024-02-10T16:05:23.294Z,3.92
2024-02-10T16:07:53.296Z,6.30
2024-02-10T16:10:22.296Z,4.82
2024-02-10T16:12:53.138Z,5.93
2024-02-10T16:15:22.334Z,4.45
2024-02-10T16:17:52.429Z,4.22
2024-02-10T16:20:22.704Z,4.22
2024-02-10T16:22:53.339Z,5.90
2024-02-10T16:25:24.471Z,5.22
2024-02-10T16:27:54.437Z,5.45
2024-02-10T16:30:23.247Z,7.07
2024-02-10T16:32:51.742Z,5.93
2024-02-10T16:35:27.095Z,6.00
2024-02-10T16:37:57.573Z,5.93
2024-02-10T16:40:30.573Z,6.78
2024-02-10T16:43:01.362Z,5.95
2024-02-10T16:45:31.303Z,7.00
2024-02-10T16:48:00.786Z,8.52
2024-02-10T16:50:30.064Z,8.13
2024-02-10T16:53:03.878Z,10.13
2024-02-10T16:55:38.744Z,8.80
2024-02-10T16:58:09.311Z,7.13
2024-02-10T17:00:38.354Z,9.68
2024-02-10T17:03:09.407Z,8.95
2024-02-10T17:05:39.042Z,9.25
2024-02-10T17:08:09.592Z,8.80
2024-02-10T17:10:38.796Z,9.52
2024-02-10T17:13:08.942Z,8.73
2024-02-10T17:15:37.564Z,10.65
2024-02-10T17:18:11.788Z,9.55
2024-02-10T17:20:40.861Z,8.70
2024-02-10T17:23:10.159Z,8.77
2024-02-10T17:25:38.729Z,8.40
2024-02-10T17:28:08.811Z,9.57
2024-02-10T17:30:37.288Z,7.43
2024-02-10T17:33:07.450Z,11.48
2024-02-10T17:35:36.142Z,10.15
2024-02-10T17:38:06.973Z,9.48
2024-02-10T17:40:35.897Z,9.20
2024-02-10T17:43:04.993Z,8.80
2024-02-10T17:45:35.081Z,9.70
2024-02-10T17:48:03.794Z,10.27
2024-02-10T17:50:32.345Z,8.90
2024-02-10T17:53:02.147Z,9.50
2024-02-10T17:55:30.866Z,8.50
2024-02-10T17:57:59.363Z,8.50
2024-02-10T18:00:27.958Z,9.77
2024-02-10T18:02:58.809Z,11.00
2024-02-10T18:05:27.748Z,8.18
2024-02-10T18:07:56.621Z,11.60
2024-02-10T18:10:25.399Z,11.55
2024-02-10T18:12:53.950Z,11.25
2024-02-10T18:15:25.545Z,10.68
2024-02-10T18:17:54.677Z,10.55
2024-02-10T18:20:28.157Z,11.40
2024-02-10T18:22:56.988Z,10.23
2024-02-10T18:25:27.083Z,9.73
2024-02-10T18:27:55.807Z,10.82
2024-02-10T18:30:24.518Z,10.82
2024-02-10T18:32:52.192Z,11.55
2024-02-10T18:35:24.292Z,11.27
2024-02-10T18:37:56.098Z,13.25
2024-02-10T18:40:26.797Z,12.63
2024-02-10T18:42:55.461Z,12.57
2024-02-10T18:45:25.192Z,11.18
2024-02-10T18:47:54.407Z,13.95
2024-02-10T18:50:23.064Z,12.52
2024-02-10T18:52:51.967Z,13.00
2024-02-10T18:55:22.410Z,11.43
2024-02-10T18:57:51.182Z,14.05
2024-02-10T19:00:21.596Z,13.93
2024-02-10T19:02:53.471Z,11.82
2024-02-10T19:05:23.953Z,13.25
2024-02-10T19:07:52.545Z,14.45
2024-02-10T19:10:22.389Z,13.68
2024-02-10T19:12:51.025Z,16.23
2024-02-10T19:15:19.723Z,13.13
2024-02-10T19:17:50.170Z,16.05
2024-02-10T19:20:20.574Z,12.93
2024-02-10T19:22:49.983Z,14.52
2024-02-10T19:25:21.315Z,15.38
2024-02-10T19:27:51.865Z,16.27
2024-02-10T19:30:20.920Z,16.27
2024-02-10T19:32:51.798Z,15.63
2024-02-10T19:35:22.126Z,16.52
2024-02-10T19:37:51.588Z,17.63
2024-02-10T19:40:21.805Z,18.80
2024-02-10T19:42:56.162Z,17.90
2024-02-10T19:45:26.636Z,21.27
2024-02-10T19:47:55.688Z,23.23
2024-02-10T19:50:24.960Z,20.55
2024-02-10T19:52:59.345Z,26.92
2024-02-10T19:55:28.450Z,23.67
2024-02-10T19:57:58.918Z,23.15
2024-02-10T20:00:27.802Z,16.48
2024-02-10T20:02:56.413Z,20.10
2024-02-10T20:05:27.062Z,20.42
2024-02-10T20:07:55.767Z,21.75
2024-02-10T20:10:24.265Z,20.20
2024-02-10T20:12:53.842Z,24.92
2024-02-10T20:15:30.117Z,27.10
2024-02-10T20:18:01.476Z,21.17
2024-02-10T20:20:32.316Z,24.38
2024-02-10T20:23:02.121Z,25.50
2024-02-10T20:25:30.818Z,22.17
2024-02-10T20:27:59.375Z,26.38
2024-02-10T20:30:30.528Z,25.02
2024-02-10T20:32:59.483Z,23.92
2024-02-10T20:35:28.153Z,26.75
2024-02-10T20:37:57.377Z,25.42
2024-02-10T20:40:25.831Z,29.27
2024-02-10T20:42:54.540Z,27.88
2024-02-10T20:45:23.072Z,24.35
2024-02-10T20:47:53.265Z,23.90
2024-02-10T20:50:22.563Z,27.02
2024-02-10T20:52:52.327Z,29.23
2024-02-10T20:55:23.618Z,23.35
2024-02-10T20:57:52.395Z,30.30
2024-02-10T21:00:21.888Z,29.27
2024-02-10T21:02:50.852Z,25.20
2024-02-10T21:05:23.394Z,31.83
2024-02-10T21:07:52.224Z,32.33
2024-02-10T21:10:21.098Z,32.83
2024-02-10T21:12:50.429Z,35.97
2024-02-10T21:15:19.554Z,30.85
2024-02-10T21:20:17.568Z,30.98
2024-02-10T21:22:48.406Z,35.13
2024-02-10T21:25:17.342Z,37.25
2024-02-10T21:27:46.097Z,37.88
2024-02-10T21:30:14.980Z,34.75
2024-02-10T21:32:44.412Z,33.63
2024-02-10T21:35:13.268Z,34.53
2024-02-10T21:37:42.275Z,36.00
2024-02-10T21:40:13.960Z,36.15
2024-02-10T21:42:43.702Z,38.10
2024-02-10T21:45:12.190Z,40.28
2024-02-10T21:47:41.304Z,37.78
2024-02-10T21:50:10.277Z,37.92
2024-02-10T21:52:39.000Z,28.50
2024-02-10T21:55:10.019Z,43.15
2024-02-10T21:57:43.941Z,40.17
2024-02-10T22:00:16.726Z,43.83
2024-02-10T22:02:50.589Z,42.78
2024-02-10T22:05:21.478Z,41.60
2024-02-10T22:07:50.221Z,47.65
2024-02-10T22:10:19.310Z,43.50
2024-02-10T22:12:49.471Z,35.03
2024-02-10T22:15:21.052Z,41.95
2024-02-10T22:17:49.728Z,45.58
2024-02-10T22:20:19.456Z,40.53
2024-02-10T22:22:49.049Z,27.38
2024-02-10T22:25:18.095Z,42.20
2024-02-10T22:27:46.955Z,39.40
2024-02-10T22:30:20.416Z,42.10
2024-02-10T22:32:50.592Z,42.05
2024-02-10T22:35:20.236Z,42.03
2024-02-10T22:37:49.870Z,34.38
2024-02-10T22:40:23.898Z,41.55
2024-02-10T22:42:53.700Z,38.25
2024-02-10T22:45:24.228Z,34.88
2024-02-10T22:47:55.279Z,43.15
2024-02-10T22:50:23.873Z,39.65
2024-02-10T22:52:53.205Z,39.25
2024-02-10T22:55:23.483Z,39.33
2024-02-10T22:57:51.945Z,38.15
2024-02-10T23:00:33.315Z,35.28
2024-02-10T23:03:05.977Z,43.85
2024-02-10T23:05:35.070Z,41.67
2024-02-10T23:08:03.909Z,42.85
2024-02-10T23:10:32.507Z,46.30
2024-02-10T23:13:07.850Z,43.38
2024-02-10T23:15:37.814Z,38.90
2024-02-10T23:18:12.803Z,42.95
2024-02-10T23:23:32.750Z,40.47
2024-02-10T23:26:01.810Z,44.05
2024-02-10T23:28:30.300Z,43.83
2024-02-10T23:31:01.743Z,43.72
2024-02-10T23:33:33.589Z,43.97
2024-02-10T23:36:06.141Z,40.10
2024-02-10T23:38:36.459Z,46.70
2024-02-10T23:41:05.950Z,38.13
2024-02-10T23:43:36.013Z,44.35
2024-02-10T23:46:07.653Z,43.28
2024-02-10T23:48:38.021Z,40.90
2024-02-10T23:51:07.345Z,37.05
2024-02-10T23:53:37.142Z,44.17
2024-02-10T23:56:09.250Z,38.92
2024-02-10T23:58:38.644Z,45.50
